Time;durP1;ratioP1;P1;durP2;ratioP2;P2;SDS_P1;SDS_P2;PMS_P1;PMS_P2;Temp;Humidity;BMP_temperature;BMP_pressure;BME280_temperature;BME280_humidity;BME280_pressure;Samples;Min_cycle;Max_cycle;Signal;HPM_P1;HPM_P2
2023/04/26 00:03:25;;;;;;;1.10;0.38;;;;;;;18.90;31.99;101868.69;16113239;19;130605;-40
2023/04/26 00:08:47;;;;;;;1.58;0.40;;;;;;;18.89;32.21;101872.53;16112796;19;130090;-40
2023/04/26 00:14:10;;;;;;;2.83;0.30;;;;;;;18.87;32.49;101869.13;16113902;19;131043;-40
2023/04/26 00:19:32;;;;;;;1.25;0.50;;;;;;;18.84;32.11;101875.97;16112383;19;131478;-41
2023/04/26 00:24:54;;;;;;;1.25;0.55;;;;;;;18.83;32.24;101884.53;16113078;19;129499;-41
2023/04/26 00:30:15;;;;;;;0.93;0.40;;;;;;;18.80;32.13;101879.41;16107467;19;131636;-41
2023/04/26 00:35:37;;;;;;;0.77;0.35;;;;;;;18.78;32.17;101871.31;16113735;19;130583;-40
2023/04/26 00:40:59;;;;;;;0.52;0.40;;;;;;;18.76;32.50;101867.94;16111255;19;130153;-40
2023/04/26 00:46:21;;;;;;;0.55;0.30;;;;;;;18.74;32.56;101867.31;16110898;19;130056;-41
2023/04/26 00:51:44;;;;;;;1.85;0.55;;;;;;;18.72;32.71;101873.06;16123636;19;129727;-40
2023/04/26 00:57:08;;;;;;;0.52;0.40;;;;;;;18.70;32.39;101874.38;16127618;19;129838;-40
2023/04/26 01:02:30;;;;;;;0.80;0.52;;;;;;;18.69;32.26;101865.22;16123249;19;130652;-40
2023/04/26 01:07:52;;;;;;;1.10;0.63;;;;;;;18.68;32.54;101865.41;16124098;19;129566;-44
2023/04/26 01:13:15;;;;;;;0.75;0.40;;;;;;;18.67;32.51;101870.13;16124988;19;129596;-40
2023/04/26 01:18:37;;;;;;;0.65;0.38;;;;;;;18.64;32.50;101876.09;16121378;19;129931;-40
2023/04/26 01:23:59;;;;;;;1.02;0.50;;;;;;;18.61;32.71;101874.63;16127904;19;128940;-41
2023/04/26 01:29:23;;;;;;;0.65;0.40;;;;;;;18.60;32.36;101880.38;16123225;19;129229;-40
2023/04/26 01:34:45;;;;;;;0.60;0.40;;;;;;;18.58;32.44;101879.78;16126539;19;129772;-40
2023/04/26 01:40:08;;;;;;;0.82;0.40;;;;;;;18.57;32.62;101880.84;16120898;19;129498;-42
2023/04/26 01:45:30;;;;;;;1.23;0.47;;;;;;;18.56;32.53;101873.63;16124050;19;129916;-42
2023/04/26 01:50:52;;;;;;;0.70;0.50;;;;;;;18.54;32.58;101875.75;16121715;19;129567;-50
2023/04/26 01:56:14;;;;;;;0.95;0.55;;;;;;;18.52;32.46;101866.81;16119793;19;130724;-43
2023/04/26 02:01:36;;;;;;;0.68;0.40;;;;;;;18.51;32.38;101865.09;16124114;19;129988;-44
2023/04/26 02:06:58;;;;;;;0.98;0.40;;;;;;;18.49;32.47;101864.47;16125256;19;129676;-50
2023/04/26 02:12:20;;;;;;;2.70;0.50;;;;;;;18.46;32.64;101863.84;16119654;19;129941;-50
2023/04/26 02:17:42;;;;;;;0.57;0.35;;;;;;;18.44;32.63;101865.16;16120543;19;129992;-42
2023/04/26 02:23:07;;;;;;;0.45;0.30;;;;;;;18.43;32.79;101861.53;16121025;19;130144;-47
2023/04/26 02:28:30;;;;;;;0.68;0.30;;;;;;;18.42;32.43;101862.59;16118938;19;129833;-45
2023/04/26 02:33:52;;;;;;;1.25;0.50;;;;;;;18.41;32.72;101855.38;16118462;19;130513;-47
2023/04/26 02:39:14;;;;;;;0.75;0.35;;;;;;;18.39;32.46;101846.41;16120419;19;130253;-42
2023/04/26 02:44:38;;;;;;;0.95;0.32;;;;;;;18.37;32.84;101842.97;16116214;19;131268;-39
2023/04/26 02:50:00;;;;;;;0.30;0.30;;;;;;;18.37;32.71;101842.97;16120959;19;131810;-42
2023/04/26 02:55:22;;;;;;;0.52;0.40;;;;;;;18.35;32.68;101835.97;16116945;19;131181;-40
2023/04/26 03:00:46;;;;;;;0.70;0.22;;;;;;;18.34;32.87;101843.41;16116959;19;129736;-40
2023/04/26 03:06:08;;;;;;;0.35;0.30;;;;;;;18.32;32.88;101845.59;16109777;19;130999;-41
2023/04/26 03:11:30;;;;;;;1.00;0.40;;;;;;;18.31;32.49;101838.34;16113232;19;129947;-41
2023/04/26 03:16:52;;;;;;;0.57;0.30;;;;;;;18.29;32.82;101835.78;16118284;19;131231;-40
2023/04/26 03:22:15;;;;;;;1.27;0.40;;;;;;;18.28;32.73;101838.78;16116886;19;129299;-40
2023/04/26 03:27:37;;;;;;;0.30;0.30;;;;;;;18.27;32.74;101837.09;16117278;19;131432;-40
2023/04/26 03:32:59;;;;;;;0.43;0.40;;;;;;;18.26;32.48;101836.25;16116856;19;132093;-39
2023/04/26 03:38:22;;;;;;;0.90;0.30;;;;;;;18.23;32.85;101839.44;16116053;19;131655;-39
2023/04/26 03:43:44;;;;;;;0.65;0.50;;;;;;;18.22;32.46;101834.97;16111900;19;131226;-40
2023/04/26 03:49:06;;;;;;;0.90;0.45;;;;;;;18.21;32.81;101838.00;16114090;19;129616;-39
2023/04/26 03:54:28;;;;;;;0.60;0.40;;;;;;;18.20;32.54;101830.75;16117259;19;131216;-39
2023/04/26 03:59:50;;;;;;;0.63;0.30;;;;;;;18.20;32.41;101825.22;16116151;19;130504;-39
2023/04/26 04:05:12;;;;;;;1.02;0.50;;;;;;;18.17;32.52;101831.19;16113277;19;129110;-40
2023/04/26 04:10:36;;;;;;;0.82;0.43;;;;;;;18.17;32.85;101837.56;16111547;19;130772;-39
2023/04/26 04:15:58;;;;;;;0.40;0.35;;;;;;;18.15;32.49;101842.50;16112899;19;130199;-40
2023/04/26 04:21:20;;;;;;;1.15;0.30;;;;;;;18.13;32.94;101845.47;16113880;19;131231;-41
2023/04/26 04:26:42;;;;;;;0.65;0.30;;;;;;;18.11;32.72;101842.06;16124786;19;129355;-41
2023/04/26 04:32:04;;;;;;;1.92;0.38;;;;;;;18.10;32.70;101854.19;16126997;19;129615;-41
2023/04/26 04:37:27;;;;;;;0.40;0.32;;;;;;;18.09;32.82;101846.13;16130373;19;135163;-39
2023/04/26 04:42:49;;;;;;;0.40;0.30;;;;;;;18.09;32.57;101862.75;16123420;19;130423;-41
2023/04/26 04:48:11;;;;;;;0.70;0.32;;;;;;;18.07;32.52;101851.03;16124544;19;130958;-40
2023/04/26 04:53:33;;;;;;;0.50;0.30;;;;;;;18.06;32.74;101843.78;16124058;19;130163;-42
2023/04/26 04:58:55;;;;;;;0.57;0.40;;;;;;;18.04;32.61;101852.31;16124112;19;130781;-42
2023/04/26 05:04:17;;;;;;;2.20;0.40;;;;;;;18.02;32.87;101854.47;16123778;19;130524;-40
2023/04/26 05:09:40;;;;;;;0.43;0.30;;;;;;;18.08;32.72;101841.66;16122849;19;131553;-41
2023/04/26 05:15:03;;;;;;;1.80;0.43;;;;;;;18.46;32.06;101847.22;16123763;19;130229;-42
2023/04/26 05:20:25;;;;;;;4.93;0.70;;;;;;;18.99;31.76;101849.84;16123496;19;129294;-41
2023/04/26 05:25:47;;;;;;;0.88;0.50;;;;;;;19.37;31.29;101868.31;16121563;19;130822;-40
2023/04/26 05:31:09;;;;;;;15.30;1.88;;;;;;;19.51;30.82;101857.91;16123401;19;131217;-42
2023/04/26 05:36:32;;;;;;;10.02;1.63;;;;;;;19.55;30.26;101866.63;16120728;19;130225;-43
2023/04/26 05:41:54;;;;;;;11.73;2.00;;;;;;;19.58;30.13;101869.78;16118713;19;129288;-42
2023/04/26 05:47:15;;;;;;;14.98;2.03;;;;;;;19.57;29.90;101868.09;16118660;19;130496;-41
2023/04/26 05:52:37;;;;;;;21.77;1.90;;;;;;;19.51;30.01;101874.56;16123732;19;129560;-41
2023/04/26 05:57:59;;;;;;;21.52;2.45;;;;;;;19.44;30.31;101876.56;16123572;19;129569;-43
2023/04/26 06:03:21;;;;;;;20.77;2.15;;;;;;;19.36;29.86;101889.66;16124787;19;130094;-43
2023/04/26 06:08:43;;;;;;;19.90;2.35;;;;;;;19.27;30.36;101890.16;16122506;19;131266;-40
2023/04/26 06:14:05;;;;;;;23.98;2.00;;;;;;;19.17;30.22;101882.34;16127108;19;129572;-41
2023/04/26 06:19:32;;;;;;;23.60;2.60;;;;;;;19.12;30.65;101880.25;16125002;19;129466;-42
2023/04/26 06:24:54;;;;;;;14.55;1.80;;;;;;;19.07;30.39;101896.69;16123535;19;130122;-40
2023/04/26 06:30:16;;;;;;;21.33;2.78;;;;;;;19.04;30.44;101889.69;16123076;19;129524;-40
2023/04/26 06:35:39;;;;;;;13.07;2.35;;;;;;;19.01;30.67;101897.63;16124532;19;129883;-40
2023/04/26 06:41:02;;;;;;;10.23;1.75;;;;;;;18.96;31.09;101902.97;16124183;19;129434;-43
2023/04/26 06:46:24;;;;;;;12.38;1.77;;;;;;;18.89;30.94;101908.56;16118683;19;129566;-41
2023/04/26 06:51:45;;;;;;;16.70;2.15;;;;;;;18.85;31.35;101904.53;16122577;19;129724;-41
2023/04/26 06:57:08;;;;;;;16.65;1.75;;;;;;;18.79;31.41;101900.72;16121740;19;130888;-41
2023/04/26 07:02:29;;;;;;;9.30;1.67;;;;;;;18.77;30.99;101905.66;16118895;19;129185;-39
2023/04/26 07:07:52;;;;;;;6.35;1.88;;;;;;;18.80;31.09;101901.59;16119302;19;129252;-39
2023/04/26 07:13:14;;;;;;;7.93;1.45;;;;;;;18.86;31.36;101897.91;16122493;19;131052;-40
2023/04/26 07:18:36;;;;;;;11.43;1.80;;;;;;;18.94;31.41;101894.91;16119666;19;129614;-40
2023/04/26 07:23:57;;;;;;;7.80;1.48;;;;;;;19.02;31.26;101891.84;16121054;19;129917;-43
2023/04/26 07:29:20;;;;;;;6.75;1.92;;;;;;;19.11;30.98;101899.88;16118953;19;129376;-40
2023/04/26 07:34:41;;;;;;;9.02;1.30;;;;;;;19.25;30.79;101886.78;16120008;19;130013;-41
2023/04/26 07:40:06;;;;;;;5.85;1.30;;;;;;;19.47;30.88;101895.50;16120411;19;129405;-43
2023/04/26 07:45:28;;;;;;;6.07;1.35;;;;;;;19.76;30.37;101904.19;16117907;19;129570;-41
2023/04/26 07:50:50;;;;;;;5.00;1.13;;;;;;;20.11;30.39;101898.06;16119694;19;129575;-41
2023/04/26 07:56:12;;;;;;;5.85;1.20;;;;;;;20.48;30.23;101903.56;16118487;19;129503;-40
2023/04/26 08:01:34;;;;;;;6.88;1.08;;;;;;;20.80;29.63;101914.44;16116607;19;129260;-41
2023/04/26 08:06:56;;;;;;;7.65;1.60;;;;;;;21.01;29.90;101904.72;16120883;19;130579;-41
2023/04/26 08:12:18;;;;;;;4.75;1.00;;;;;;;21.14;29.72;101898.09;16118589;19;130445;-40
2023/04/26 08:17:40;;;;;;;4.72;1.35;;;;;;;21.16;29.48;101901.50;16105929;19;131488;-40
2023/04/26 08:23:02;;;;;;;5.40;1.05;;;;;;;21.13;29.26;101899.19;16112562;19;129525;-40
2023/04/26 08:28:25;;;;;;;8.75;1.48;;;;;;;21.03;29.65;101898.94;16112108;19;129937;-41
2023/04/26 08:33:47;;;;;;;15.48;1.50;;;;;;;20.87;29.61;101892.09;16113488;19;129255;-43
2023/04/26 08:39:08;;;;;;;9.00;2.05;;;;;;;20.71;29.63;101897.25;16115378;19;129782;-42
2023/04/26 08:44:34;;;;;;;15.30;1.90;;;;;;;20.56;30.05;101894.88;16115540;19;129655;-39
2023/04/26 08:50:02;;;;;;;10.07;2.05;;;;;;;20.47;30.02;101893.50;16113686;19;130476;-40
2023/04/26 08:55:25;;;;;;;18.20;2.00;;;;;;;20.42;29.97;101890.63;16113089;19;129661;-41
2023/04/26 09:00:49;;;;;;;20.58;1.70;;;;;;;20.40;30.20;101890.81;16113055;19;129007;-40
2023/04/26 09:06:12;;;;;;;11.68;1.73;;;;;;;20.39;29.93;101880.78;16112606;19;130414;-40
2023/04/26 09:11:58;;;;;;;9.35;2.03;;;;;;;20.35;29.99;101873.16;16124822;19;129357;-40
2023/04/26 09:17:35;;;;;;;10.63;2.05;;;;;;;20.26;30.52;101884.63;16129544;19;130239;-40
2023/04/26 09:23:08;;;;;;;12.25;2.25;;;;;;;20.20;30.45;101877.19;16129365;19;130953;-40
2023/04/26 09:28:30;;;;;;;7.90;1.30;;;;;;;20.14;30.59;101883.72;16129447;19;131417;-41
2023/04/26 09:33:59;;;;;;;7.70;1.35;;;;;;;20.12;30.31;101881.13;16125947;19;129257;-47
2023/04/26 09:39:36;;;;;;;4.05;1.17;;;;;;;20.09;30.62;101889.09;16125692;19;129429;-48
2023/04/26 09:45:05;;;;;;;9.45;1.73;;;;;;;20.04;30.68;101880.63;16130741;19;130733;-47
2023/04/26 09:50:29;;;;;;;4.57;1.05;;;;;;;20.00;30.74;101877.44;16125885;19;130056;-44
2023/04/26 09:55:50;;;;;;;6.90;1.10;;;;;;;19.94;31.04;101876.41;16124617;19;129540;-47
2023/04/26 10:01:14;;;;;;;4.03;1.00;;;;;;;19.92;30.91;101875.84;16127477;19;130564;-45
2023/04/26 10:06:40;;;;;;;6.72;1.02;;;;;;;19.88;30.81;101876.53;16124884;19;129726;-47
2023/04/26 10:12:02;;;;;;;3.60;0.80;;;;;;;19.87;30.95;101872.88;16127118;19;130224;-46
2023/04/26 10:17:24;;;;;;;3.83;0.70;;;;;;;19.88;30.89;101852.38;16125154;19;132331;-45
2023/04/26 10:22:52;;;;;;;2.55;1.13;;;;;;;19.91;30.89;101863.03;16125250;19;135025;-48
2023/04/26 10:28:15;;;;;;;2.17;0.77;;;;;;;19.91;30.81;101863.03;16120975;19;130909;-46
2023/04/26 10:33:37;;;;;;;4.53;0.90;;;;;;;19.96;31.06;101865.94;16117535;19;129771;-40
2023/04/26 10:39:21;;;;;;;4.43;0.88;;;;;;;20.05;30.63;101857.34;16119567;19;130742;-41
2023/04/26 10:44:46;;;;;;;4.22;0.80;;;;;;;20.10;30.52;101850.00;16123453;19;131031;-40
2023/04/26 10:50:10;;;;;;;3.63;1.23;;;;;;;20.21;30.62;101845.56;16120700;19;131365;-42
2023/04/26 10:55:41;;;;;;;3.05;1.10;;;;;;;20.32;30.42;101840.28;16119675;19;130252;-40
2023/04/26 11:01:15;;;;;;;4.35;0.90;;;;;;;20.40;30.10;101826.91;16112567;19;130181;-40
2023/04/26 11:06:50;;;;;;;3.45;0.80;;;;;;;20.51;30.08;101819.69;16117544;19;129782;-40
2023/04/26 11:12:15;;;;;;;5.90;1.10;;;;;;;20.62;29.99;101828.31;16115680;19;131413;-42
2023/04/26 11:17:37;;;;;;;4.25;0.80;;;;;;;20.75;29.67;101822.53;16120610;19;129444;-40
2023/04/26 11:23:00;;;;;;;3.55;0.82;;;;;;;20.85;29.31;101828.38;16119129;19;130385;-40
2023/04/26 11:28:22;;;;;;;4.38;0.80;;;;;;;20.94;29.28;101811.31;16092403;19;135134;-41
2023/04/26 11:33:44;;;;;;;2.63;0.57;;;;;;;20.99;29.15;101805.91;16112721;19;129596;-39
2023/04/26 11:39:07;;;;;;;4.63;1.00;;;;;;;21.02;29.03;101805.44;16118134;19;130024;-39
2023/04/26 11:44:28;;;;;;;2.50;0.80;;;;;;;21.01;29.29;101792.59;16115693;19;129850;-40
2023/04/26 11:49:51;;;;;;;4.38;0.80;;;;;;;21.00;29.32;101790.91;16118309;19;129352;-39
2023/04/26 11:55:13;;;;;;;2.78;0.70;;;;;;;20.99;29.26;101797.56;16115904;19;129371;-41
2023/04/26 12:00:35;;;;;;;3.25;1.00;;;;;;;20.94;29.45;101795.50;16117559;19;129566;-40
2023/04/26 12:05:57;;;;;;;2.42;0.80;;;;;;;20.86;29.46;101791.13;16114915;19;130331;-40
2023/04/26 12:11:19;;;;;;;2.17;0.60;;;;;;;20.81;29.28;101796.56;16114028;19;130075;-40
2023/04/26 12:16:42;;;;;;;2.67;0.60;;;;;;;20.74;29.36;101795.81;16114351;19;132980;-40
2023/04/26 12:22:07;;;;;;;3.00;0.88;;;;;;;20.67;29.56;101792.31;16114894;19;129506;-40
2023/04/26 12:27:29;;;;;;;3.85;0.98;;;;;;;20.60;29.80;101800.75;16116689;19;130760;-40
2023/04/26 12:32:51;;;;;;;1.92;0.50;;;;;;;20.55;29.65;101804.25;16115190;19;130374;-39
2023/04/26 12:38:18;;;;;;;2.13;0.70;;;;;;;20.51;29.58;101800.25;16114497;19;130424;-40
2023/04/26 12:43:40;;;;;;;1.52;0.57;;;;;;;20.48;29.69;101795.16;16117051;19;131614;-40
2023/04/26 12:49:03;;;;;;;1.02;0.57;;;;;;;20.44;29.88;101799.47;16129222;19;129593;-40
2023/04/26 12:54:24;;;;;;;2.58;0.65;;;;;;;20.39;29.87;101802.97;16128016;19;129701;-39
2023/04/26 12:59:47;;;;;;;1.88;0.60;;;;;;;20.36;30.42;101805.38;16126121;19;135898;-39
2023/04/26 13:05:09;;;;;;;1.48;0.40;;;;;;;20.33;30.11;101803.06;16128987;19;131197;-41
2023/04/26 13:10:31;;;;;;;2.25;0.70;;;;;;;20.28;29.92;101801.88;16128359;19;130826;-39
2023/04/26 13:15:54;;;;;;;1.13;0.60;;;;;;;20.21;30.21;101797.50;16124344;19;131399;-40
2023/04/26 13:21:16;;;;;;;3.55;1.02;;;;;;;20.16;29.59;101792.66;16126732;19;130445;-41
2023/04/26 13:26:37;;;;;;;3.33;1.15;;;;;;;20.11;29.47;101800.81;16127300;19;129476;-41
2023/04/26 13:32:00;;;;;;;4.65;1.20;;;;;;;20.10;29.85;101796.34;16128312;19;130947;-39
2023/04/26 13:37:22;;;;;;;1.55;0.60;;;;;;;20.10;29.60;101786.09;16128046;19;130088;-44
2023/04/26 13:42:44;;;;;;;5.75;1.02;;;;;;;20.10;29.43;101783.31;16121760;19;130301;-40
2023/04/26 13:48:06;;;;;;;3.85;1.02;;;;;;;20.11;29.42;101789.72;16126268;19;131265;-39
2023/04/26 13:53:28;;;;;;;7.57;1.00;;;;;;;20.12;29.17;101789.47;16119986;19;131002;-40
2023/04/26 13:58:55;;;;;;;2.72;0.98;;;;;;;20.18;29.02;101784.94;16124217;19;130605;-41
2023/04/26 14:04:17;;;;;;;2.63;0.80;;;;;;;20.28;29.07;101789.88;16122772;19;131424;-41
2023/04/26 14:09:39;;;;;;;5.15;0.90;;;;;;;20.38;28.98;101789.31;16123573;19;130315;-40
2023/04/26 14:15:03;;;;;;;2.88;0.82;;;;;;;20.47;29.06;101787.06;16124657;19;130198;-40
2023/04/26 14:20:24;;;;;;;3.08;0.90;;;;;;;20.55;28.83;101784.78;16122568;19;130980;-40
2023/04/26 14:25:50;;;;;;;4.18;0.85;;;;;;;20.60;28.81;101782.13;16124624;19;135868;-40
2023/04/26 14:31:12;;;;;;;3.25;0.95;;;;;;;20.62;28.27;101787.44;16125397;19;131033;-39
2023/04/26 14:36:34;;;;;;;6.47;1.27;;;;;;;20.62;28.25;101781.03;16122179;19;129503;-40
2023/04/26 14:41:56;;;;;;;3.63;1.00;;;;;;;20.60;28.47;101781.28;16121867;19;129119;-39
2023/04/26 14:47:18;;;;;;;3.13;1.00;;;;;;;20.55;27.88;101782.00;16119652;19;130222;-39
2023/04/26 14:52:40;;;;;;;5.10;1.08;;;;;;;20.48;28.39;101784.03;16122604;19;131108;-46
2023/04/26 14:58:02;;;;;;;8.18;1.65;;;;;;;20.46;28.32;101763.97;16119926;19;129964;-41
2023/04/26 15:03:24;;;;;;;8.48;1.40;;;;;;;20.46;28.15;101758.41;16119214;19;131135;-39
2023/04/26 15:08:49;;;;;;;3.95;1.15;;;;;;;20.43;28.53;101753.34;16118902;19;131121;-42
2023/04/26 15:14:11;;;;;;;5.53;1.70;;;;;;;20.38;28.43;101755.97;16117994;19;129624;-40
2023/04/26 15:19:33;;;;;;;4.55;1.60;;;;;;;20.34;27.86;101751.97;16117504;19;131242;-40
2023/04/26 15:24:55;;;;;;;3.15;1.40;;;;;;;20.31;27.92;101744.97;16117337;19;131546;-40
2023/04/26 15:30:17;;;;;;;2.97;1.20;;;;;;;20.25;28.06;101755.09;16116084;19;130634;-40
2023/04/26 15:35:39;;;;;;;3.75;1.25;;;;;;;20.20;28.08;101748.56;16113027;19;129720;-41
2023/04/26 15:41:01;;;;;;;4.10;1.40;;;;;;;20.17;28.18;101744.34;16115342;19;131340;-39
2023/04/26 15:46:23;;;;;;;7.50;1.20;;;;;;;20.11;28.11;101746.13;16113694;19;129136;-40
2023/04/26 15:51:45;;;;;;;4.40;1.45;;;;;;;20.08;28.13;101742.97;16118491;19;129684;-42
2023/04/26 15:57:07;;;;;;;5.45;1.60;;;;;;;20.07;27.78;101744.03;16116259;19;130009;-41
2023/04/26 16:02:29;;;;;;;5.43;1.67;;;;;;;20.04;28.10;101738.97;16115563;19;131680;-40
2023/04/26 16:07:51;;;;;;;5.78;1.30;;;;;;;20.03;28.34;101748.38;16115763;19;129628;-40
2023/04/26 16:13:12;;;;;;;4.70;1.40;;;;;;;19.99;27.91;101743.31;16116380;19;130533;-42
2023/04/26 16:18:38;;;;;;;4.28;1.58;;;;;;;19.99;27.86;101743.31;16118286;19;129348;-41
2023/04/26 16:24:00;;;;;;;5.67;1.53;;;;;;;19.96;28.10;101749.28;16132204;19;129878;-40
2023/04/26 16:29:23;;;;;;;4.07;1.58;;;;;;;19.95;28.14;101736.47;16134918;19;129538;-40
2023/04/26 16:34:46;;;;;;;9.23;1.58;;;;;;;19.93;28.09;101746.13;16129167;19;129634;-40
2023/04/26 16:40:09;;;;;;;3.90;1.55;;;;;;;19.93;28.48;101740.59;16128731;19;131693;-40
2023/04/26 16:45:31;;;;;;;4.93;1.90;;;;;;;19.92;28.31;101734.19;16125349;19;130402;-41
2023/04/26 16:50:53;;;;;;;7.78;2.08;;;;;;;19.89;28.69;101736.56;16127304;19;129669;-40
2023/04/26 16:56:15;;;;;;;3.97;1.70;;;;;;;19.85;28.48;101741.75;16128733;19;131516;-40
2023/04/26 17:01:37;;;;;;;5.25;1.50;;;;;;;19.84;28.05;101746.47;16127573;19;131873;-43
2023/04/26 17:06:58;;;;;;;4.20;1.50;;;;;;;19.83;28.13;101744.78;16129389;19;130036;-42
2023/04/26 17:12:20;;;;;;;7.43;1.67;;;;;;;19.84;28.27;101754.81;16129391;19;131031;-40
2023/04/26 17:17:42;;;;;;;5.00;1.70;;;;;;;19.90;28.26;101755.78;16129250;19;129432;-40
2023/04/26 17:23:04;;;;;;;5.40;1.40;;;;;;;20.04;27.99;101750.09;16122865;19;133963;-40
2023/04/26 17:28:26;;;;;;;2.95;1.10;;;;;;;20.17;27.80;101749.91;16125754;19;133319;-41
2023/04/26 17:33:48;;;;;;;8.90;1.55;;;;;;;20.27;27.90;101752.94;16120636;19;130371;-41
2023/04/26 17:39:10;;;;;;;3.60;1.00;;;;;;;20.35;27.86;101756.44;16123566;19;131690;-40
2023/04/26 17:44:32;;;;;;;5.07;1.00;;;;;;;20.40;27.45;101759.38;16123739;19;129923;-41
2023/04/26 17:49:53;;;;;;;2.58;0.90;;;;;;;20.43;27.70;101768.06;16122207;19;130527;-40
2023/04/26 17:55:15;;;;;;;1.85;0.90;;;;;;;20.47;27.89;101776.78;16122457;19;131016;-41
2023/04/26 18:00:37;;;;;;;4.25;1.10;;;;;;;20.51;27.61;101779.91;16121243;19;130210;-41
2023/04/26 18:06:00;;;;;;;1.50;0.80;;;;;;;20.52;27.60;101787.19;16121414;19;130575;-40
2023/04/26 18:11:22;;;;;;;3.45;1.00;;;;;;;20.54;27.39;101787.78;16121445;19;130728;-42
2023/04/26 18:16:44;;;;;;;3.30;1.00;;;;;;;20.53;27.18;101781.41;16118239;19;129460;-44
2023/04/26 18:22:06;;;;;;;8.20;1.38;;;;;;;20.54;27.27;101787.78;16008187;19;130637;-40
2023/04/26 18:27:28;;;;;;;17.23;1.85;;;;;;;20.56;27.64;101800.34;16060330;19;131645;-39
2023/04/26 18:32:51;;;;;;;16.92;2.28;;;;;;;20.60;27.80;101801.59;16123211;19;130526;-39
2023/04/26 18:38:13;;;;;;;25.40;2.58;;;;;;;20.62;28.23;101808.84;16121584;19;129519;-39
2023/04/26 18:43:35;;;;;;;17.33;2.65;;;;;;;20.64;28.03;101813.06;16118257;19;129454;-39
2023/04/26 18:48:57;;;;;;;15.82;2.35;;;;;;;20.68;27.97;101816.22;16116946;19;129838;-39
2023/04/26 18:54:19;;;;;;;15.25;2.30;;;;;;;20.70;28.17;101819.59;16119546;19;129487;-39
2023/04/26 18:59:41;;;;;;;16.67;1.77;;;;;;;20.72;27.89;101823.88;16119557;19;131470;-48
2023/04/26 19:05:03;;;;;;;10.07;1.60;;;;;;;20.77;28.03;101825.97;16121756;19;129557;-48
2023/04/26 19:10:25;;;;;;;9.88;1.80;;;;;;;20.79;28.20;101829.34;16132894;19;131049;-48
2023/04/26 19:15:47;;;;;;;8.50;1.30;;;;;;;20.85;28.05;101828.38;16143450;19;129506;-49
2023/04/26 19:21:09;;;;;;;8.80;1.33;;;;;;;21.03;28.16;101841.34;16121846;19;130040;-48
2023/04/26 19:26:31;;;;;;;6.80;1.40;;;;;;;21.25;28.11;101848.25;16119727;19;131572;-47
2023/04/26 19:31:53;;;;;;;7.03;0.93;;;;;;;21.41;27.80;101841.09;16111984;19;130354;-47
2023/04/26 19:37:15;;;;;;;5.43;1.30;;;;;;;21.48;28.06;101831.53;16115336;19;129495;-48
2023/04/26 19:42:37;;;;;;;5.05;1.00;;;;;;;21.53;27.85;101839.19;16110430;19;130873;-46
2023/04/26 19:47:58;;;;;;;8.20;1.40;;;;;;;21.58;28.16;101847.66;16115240;19;131413;-48
2023/04/26 19:53:20;;;;;;;3.85;0.93;;;;;;;21.60;28.39;101851.03;16112526;19;129470;-48
2023/04/26 19:58:42;;;;;;;3.60;1.10;;;;;;;21.62;28.52;101853.59;16110742;19;130446;-39
2023/04/26 20:04:04;;;;;;;16.27;1.30;;;;;;;21.58;28.43;101852.38;16113645;19;129556;-39
2023/04/26 20:09:27;;;;;;;14.07;1.67;;;;;;;21.54;28.41;101852.00;16117710;19;133871;-39
2023/04/26 20:14:50;;;;;;;16.77;1.77;;;;;;;21.49;28.77;101849.97;16117873;19;130604;-43
2023/04/26 20:20:13;;;;;;;10.80;1.45;;;;;;;21.44;28.88;101855.38;16120433;19;130333;-40
2023/04/26 20:25:38;;;;;;;14.50;1.80;;;;;;;21.35;29.41;101854.06;16107429;19;129833;-41
2023/04/26 20:31:00;;;;;;;18.65;1.67;;;;;;;21.26;29.59;101844.38;16116280;19;130936;-39
2023/04/26 20:36:25;;;;;;;24.27;1.95;;;;;;;21.14;29.38;101866.63;16118619;19;129999;-41
2023/04/26 20:41:46;;;;;;;15.57;1.75;;;;;;;21.05;29.39;101867.00;16112799;19;132056;-40
2023/04/26 20:47:08;;;;;;;12.82;1.60;;;;;;;20.96;29.37;101868.44;16114073;19;129305;-40
2023/04/26 20:52:30;;;;;;;9.20;1.70;;;;;;;20.89;29.74;101865.75;16111813;19;130512;-39
2023/04/26 20:57:52;;;;;;;8.48;1.42;;;;;;;20.82;29.70;101866.94;16109420;19;130127;-41
2023/04/26 21:03:14;;;;;;;5.32;1.45;;;;;;;20.75;30.35;101870.66;16112276;19;130809;-39
2023/04/26 21:08:36;;;;;;;7.60;1.50;;;;;;;20.72;29.94;101873.06;16127362;19;130304;-40
2023/04/26 21:13:58;;;;;;;11.32;1.60;;;;;;;20.68;30.44;101869.03;16126299;19;129356;-41
2023/04/26 21:19:20;;;;;;;11.40;1.50;;;;;;;20.67;30.65;101875.72;16124384;19;130702;-38
2023/04/26 21:24:42;;;;;;;10.95;1.67;;;;;;;20.64;30.59;101884.53;16124206;19;129427;-44
2023/04/26 21:30:05;;;;;;;15.60;1.70;;;;;;;20.61;30.57;101883.06;16126800;19;130444;-39
2023/04/26 21:35:28;;;;;;;7.47;1.63;;;;;;;20.56;30.95;101883.75;16122045;19;129391;-40
2023/04/26 21:40:49;;;;;;;5.60;1.58;;;;;;;20.53;30.96;101886.16;16125488;19;130040;-43
2023/04/26 21:46:11;;;;;;;10.70;1.67;;;;;;;20.49;31.12;101891.34;16124823;19;131195;-39
2023/04/26 21:51:33;;;;;;;8.70;1.45;;;;;;;20.48;31.10;101884.09;16122194;19;130844;-39
2023/04/26 21:56:55;;;;;;;12.25;1.50;;;;;;;20.45;30.79;101879.00;16121369;19;131152;-42
2023/04/26 22:02:17;;;;;;;9.23;1.33;;;;;;;20.43;30.98;101881.19;16119697;19;131787;-38
2023/04/26 22:07:39;;;;;;;9.32;1.30;;;;;;;20.41;31.22;101873.06;16122249;19;129975;-39
2023/04/26 22:13:01;;;;;;;3.67;1.00;;;;;;;20.39;31.14;101875.22;16124428;19;134611;-39
2023/04/26 22:18:25;;;;;;;7.03;1.10;;;;;;;20.37;31.54;101880.16;16122723;19;131467;-38
2023/04/26 22:23:46;;;;;;;4.70;1.30;;;;;;;20.32;31.32;101890.31;16118133;19;129965;-40
2023/04/26 22:29:08;;;;;;;7.63;1.33;;;;;;;20.23;31.56;101887.84;16121734;19;129975;-39
2023/04/26 22:34:30;;;;;;;3.90;0.90;;;;;;;20.17;31.70;101882.38;16120016;19;129233;-39
2023/04/26 22:39:52;;;;;;;7.35;1.27;;;;;;;20.10;31.75;101879.69;16117431;19;129549;-38
2023/04/26 22:45:14;;;;;;;6.10;1.25;;;;;;;20.04;31.36;101883.41;16114152;19;129391;-38
2023/04/26 22:50:36;;;;;;;4.50;1.15;;;;;;;19.98;31.82;101885.16;16116488;19;130680;-39
2023/04/26 22:55:58;;;;;;;2.63;1.20;;;;;;;19.92;31.57;101898.03;16117555;19;129435;-38
2023/04/26 23:01:20;;;;;;;7.18;1.67;;;;;;;19.88;31.54;101899.59;16116184;19;130081;-38
2023/04/26 23:06:42;;;;;;;3.67;0.82;;;;;;;19.81;31.43;101907.97;16114560;19;131027;-39
2023/04/26 23:12:04;;;;;;;3.10;1.00;;;;;;;19.77;31.96;101911.44;16113414;19;129570;-40
2023/04/26 23:41:13;;;;;;;4.30;1.10;;;;;;;19.52;31.69;101923.44;16103492;19;132737;-39
2023/04/26 23:46:35;;;;;;;2.33;0.88;;;;;;;19.49;31.75;101927.53;16121564;19;129399;-38
2023/04/26 23:51:57;;;;;;;3.60;1.10;;;;;;;19.46;31.67;101938.22;16115916;19;131043;-38
2023/04/26 23:57:19;;;;;;;3.85;1.15;;;;;;;19.44;31.94;101929.31;16113833;19;131251;-39
